sensor_id;sensor_type;location;lat;lon;timestamp;temperature;humidity
53045;DHT22;38930;52.766;6.884;2023-06-04T00:02:19;12.10;99.90
53045;DHT22;38930;52.766;6.884;2023-06-04T00:04:44;12.10;99.90
53045;DHT22;38930;52.766;6.884;2023-06-04T00:07:10;12.00;99.90
53045;DHT22;38930;52.766;6.884;2023-06-04T00:09:35;12.00;99.90
53045;DHT22;38930;52.766;6.884;2023-06-04T00:12:01;11.90;99.90
53045;DHT22;38930;52.766;6.884;2023-06-04T00:14:27;11.90;99.90
53045;DHT22;38930;52.766;6.884;2023-06-04T00:16:53;12.10;99.90
53045;DHT22;38930;52.766;6.884;2023-06-04T00:19:18;11.80;99.90
53045;DHT22;38930;52.766;6.884;2023-06-04T00:21:45;11.80;99.90
53045;DHT22;38930;52.766;6.884;2023-06-04T00:24:11;11.80;99.90
53045;DHT22;38930;52.766;6.884;2023-06-04T00:26:37;11.80;99.90
53045;DHT22;38930;52.766;6.884;2023-06-04T00:29:03;11.70;99.90
53045;DHT22;38930;52.766;6.884;2023-06-04T00:31:29;11.80;99.90
53045;DHT22;38930;52.766;6.884;2023-06-04T00:33:54;11.60;99.90
53045;DHT22;38930;52.766;6.884;2023-06-04T00:36:20;11.60;99.90
53045;DHT22;38930;52.766;6.884;2023-06-04T00:38:46;11.60;99.90
53045;DHT22;38930;52.766;6.884;2023-06-04T00:41:11;11.60;99.90
53045;DHT22;38930;52.766;6.884;2023-06-04T00:43:37;11.50;99.90
53045;DHT22;38930;52.766;6.884;2023-06-04T00:46:03;11.50;99.90
53045;DHT22;38930;52.766;6.884;2023-06-04T00:48:29;11.50;99.90
53045;DHT22;38930;52.766;6.884;2023-06-04T00:50:56;11.40;99.90
53045;DHT22;38930;52.766;6.884;2023-06-04T00:53:24;12.00;99.90
53045;DHT22;38930;52.766;6.884;2023-06-04T00:55:50;11.40;99.90
53045;DHT22;38930;52.766;6.884;2023-06-04T00:58:17;11.40;99.90
53045;DHT22;38930;52.766;6.884;2023-06-04T01:00:43;11.40;99.90
53045;DHT22;38930;52.766;6.884;2023-06-04T01:03:17;11.50;99.90
53045;DHT22;38930;52.766;6.884;2023-06-04T01:05:51;11.30;99.90
53045;DHT22;38930;52.766;6.884;2023-06-04T01:08:20;11.30;99.90
53045;DHT22;38930;52.766;6.884;2023-06-04T01:10:52;11.30;99.90
53045;DHT22;38930;52.766;6.884;2023-06-04T01:13:18;11.30;99.90
53045;DHT22;38930;52.766;6.884;2023-06-04T01:15:44;11.20;99.90
53045;DHT22;38930;52.766;6.884;2023-06-04T01:18:10;11.30;99.90
53045;DHT22;38930;52.766;6.884;2023-06-04T01:20:43;11.20;99.90
53045;DHT22;38930;52.766;6.884;2023-06-04T01:23:37;11.20;99.90
53045;DHT22;38930;52.766;6.884;2023-06-04T01:26:09;11.10;99.90
53045;DHT22;38930;52.766;6.884;2023-06-04T01:28:36;11.10;99.90
53045;DHT22;38930;52.766;6.884;2023-06-04T01:31:04;11.10;99.90
53045;DHT22;38930;52.766;6.884;2023-06-04T01:33:33;11.00;99.90
53045;DHT22;38930;52.766;6.884;2023-06-04T01:35:59;11.00;99.90
53045;DHT22;38930;52.766;6.884;2023-06-04T01:38:25;11.00;99.90
53045;DHT22;38930;52.766;6.884;2023-06-04T01:40:51;10.90;99.90
53045;DHT22;38930;52.766;6.884;2023-06-04T01:43:21;10.90;99.90
53045;DHT22;38930;52.766;6.884;2023-06-04T01:45:47;10.90;99.90
53045;DHT22;38930;52.766;6.884;2023-06-04T01:48:13;10.90;99.90
53045;DHT22;38930;52.766;6.884;2023-06-04T01:50:39;11.50;99.90
53045;DHT22;38930;52.766;6.884;2023-06-04T01:53:05;10.80;99.90
53045;DHT22;38930;52.766;6.884;2023-06-04T01:55:31;10.80;99.90
53045;DHT22;38930;52.766;6.884;2023-06-04T01:57:59;10.80;99.90
53045;DHT22;38930;52.766;6.884;2023-06-04T02:00:24;10.80;99.90
53045;DHT22;38930;52.766;6.884;2023-06-04T02:02:50;10.70;99.90
53045;DHT22;38930;52.766;6.884;2023-06-04T02:05:17;10.70;99.90
53045;DHT22;38930;52.766;6.884;2023-06-04T02:07:44;10.70;99.90
53045;DHT22;38930;52.766;6.884;2023-06-04T02:10:15;10.70;99.90
53045;DHT22;38930;52.766;6.884;2023-06-04T02:12:59;10.70;99.90
53045;DHT22;38930;52.766;6.884;2023-06-04T02:15:26;10.60;99.90
53045;DHT22;38930;52.766;6.884;2023-06-04T02:17:57;10.60;99.90
53045;DHT22;38930;52.766;6.884;2023-06-04T02:20:26;10.90;99.90
53045;DHT22;38930;52.766;6.884;2023-06-04T02:22:56;10.50;99.90
53045;DHT22;38930;52.766;6.884;2023-06-04T02:25:23;10.50;99.90
53045;DHT22;38930;52.766;6.884;2023-06-04T02:27:49;10.50;99.90
53045;DHT22;38930;52.766;6.884;2023-06-04T02:30:15;10.60;99.90
53045;DHT22;38930;52.766;6.884;2023-06-04T02:32:42;10.50;99.90
53045;DHT22;38930;52.766;6.884;2023-06-04T02:35:10;10.40;99.90
53045;DHT22;38930;52.766;6.884;2023-06-04T02:37:36;10.40;99.90
53045;DHT22;38930;52.766;6.884;2023-06-04T02:40:01;10.30;99.90
53045;DHT22;38930;52.766;6.884;2023-06-04T02:42:27;10.40;99.90
53045;DHT22;38930;52.766;6.884;2023-06-04T02:44:53;10.30;99.90
53045;DHT22;38930;52.766;6.884;2023-06-04T02:47:18;10.30;99.90
53045;DHT22;38930;52.766;6.884;2023-06-04T02:49:45;10.30;99.90
53045;DHT22;38930;52.766;6.884;2023-06-04T02:52:11;10.50;99.90
53045;DHT22;38930;52.766;6.884;2023-06-04T02:54:37;10.30;99.90
53045;DHT22;38930;52.766;6.884;2023-06-04T02:57:03;10.30;99.90
53045;DHT22;38930;52.766;6.884;2023-06-04T02:59:29;10.30;99.90
53045;DHT22;38930;52.766;6.884;2023-06-04T03:01:55;10.20;99.90
53045;DHT22;38930;52.766;6.884;2023-06-04T03:04:21;10.20;99.90
53045;DHT22;38930;52.766;6.884;2023-06-04T03:06:46;10.20;99.90
53045;DHT22;38930;52.766;6.884;2023-06-04T03:09:12;10.30;99.90
53045;DHT22;38930;52.766;6.884;2023-06-04T03:11:38;10.20;99.90
53045;DHT22;38930;52.766;6.884;2023-06-04T03:14:04;10.20;99.90
53045;DHT22;38930;52.766;6.884;2023-06-04T03:16:30;10.60;99.90
53045;DHT22;38930;52.766;6.884;2023-06-04T03:18:56;10.20;99.90
53045;DHT22;38930;52.766;6.884;2023-06-04T03:21:22;10.20;99.90
53045;DHT22;38930;52.766;6.884;2023-06-04T03:23:47;10.20;99.90
53045;DHT22;38930;52.766;6.884;2023-06-04T03:26:13;10.20;99.90
53045;DHT22;38930;52.766;6.884;2023-06-04T03:28:39;10.40;99.90
53045;DHT22;38930;52.766;6.884;2023-06-04T03:31:05;10.20;99.90
53045;DHT22;38930;52.766;6.884;2023-06-04T03:33:31;10.20;99.90
53045;DHT22;38930;52.766;6.884;2023-06-04T03:35:56;10.10;99.90
53045;DHT22;38930;52.766;6.884;2023-06-04T03:38:27;10.80;99.90
53045;DHT22;38930;52.766;6.884;2023-06-04T03:40:53;10.20;99.90
53045;DHT22;38930;52.766;6.884;2023-06-04T03:43:20;10.20;99.90
53045;DHT22;38930;52.766;6.884;2023-06-04T03:45:45;10.20;99.90
53045;DHT22;38930;52.766;6.884;2023-06-04T03:48:11;10.30;99.90
53045;DHT22;38930;52.766;6.884;2023-06-04T03:50:37;10.20;99.90
53045;DHT22;38930;52.766;6.884;2023-06-04T03:53:02;10.30;99.90
53045;DHT22;38930;52.766;6.884;2023-06-04T03:55:30;10.30;99.90
53045;DHT22;38930;52.766;6.884;2023-06-04T03:57:57;10.40;99.90
53045;DHT22;38930;52.766;6.884;2023-06-04T04:00:23;10.40;99.90
53045;DHT22;38930;52.766;6.884;2023-06-04T04:02:49;10.80;99.90
53045;DHT22;38930;52.766;6.884;2023-06-04T04:05:15;10.50;99.90
53045;DHT22;38930;52.766;6.884;2023-06-04T04:07:40;10.60;99.90
53045;DHT22;38930;52.766;6.884;2023-06-04T04:10:07;10.50;99.90
53045;DHT22;38930;52.766;6.884;2023-06-04T04:12:32;10.50;99.90
53045;DHT22;38930;52.766;6.884;2023-06-04T04:14:58;10.50;99.90
53045;DHT22;38930;52.766;6.884;2023-06-04T04:17:24;10.60;99.90
53045;DHT22;38930;52.766;6.884;2023-06-04T04:19:50;10.60;99.90
53045;DHT22;38930;52.766;6.884;2023-06-04T04:22:15;10.60;99.90
53045;DHT22;38930;52.766;6.884;2023-06-04T04:24:42;10.70;99.90
53045;DHT22;38930;52.766;6.884;2023-06-04T04:27:09;10.60;99.90
53045;DHT22;38930;52.766;6.884;2023-06-04T04:29:41;10.50;99.90
53045;DHT22;38930;52.766;6.884;2023-06-04T04:32:09;10.60;99.90
53045;DHT22;38930;52.766;6.884;2023-06-04T04:34:38;10.60;99.90
53045;DHT22;38930;52.766;6.884;2023-06-04T04:37:08;10.60;99.90
53045;DHT22;38930;52.766;6.884;2023-06-04T04:39:35;10.80;99.90
53045;DHT22;38930;52.766;6.884;2023-06-04T04:42:04;10.80;99.90
53045;DHT22;38930;52.766;6.884;2023-06-04T04:44:29;11.20;99.90
53045;DHT22;38930;52.766;6.884;2023-06-04T04:46:55;11.20;99.90
53045;DHT22;38930;52.766;6.884;2023-06-04T04:49:20;11.10;99.90
53045;DHT22;38930;52.766;6.884;2023-06-04T04:51:46;11.10;99.90
53045;DHT22;38930;52.766;6.884;2023-06-04T04:54:12;11.10;99.90
53045;DHT22;38930;52.766;6.884;2023-06-04T04:56:37;11.00;99.90
53045;DHT22;38930;52.766;6.884;2023-06-04T04:59:03;11.00;99.90
53045;DHT22;38930;52.766;6.884;2023-06-04T05:01:28;11.10;99.90
53045;DHT22;38930;52.766;6.884;2023-06-04T05:03:55;11.10;99.90
53045;DHT22;38930;52.766;6.884;2023-06-04T05:06:20;11.10;99.90
53045;DHT22;38930;52.766;6.884;2023-06-04T05:08:47;11.10;99.90
53045;DHT22;38930;52.766;6.884;2023-06-04T05:11:12;11.10;99.90
53045;DHT22;38930;52.766;6.884;2023-06-04T05:13:38;11.10;99.90
53045;DHT22;38930;52.766;6.884;2023-06-04T05:16:04;11.20;99.90
53045;DHT22;38930;52.766;6.884;2023-06-04T05:18:37;11.20;99.90
53045;DHT22;38930;52.766;6.884;2023-06-04T05:21:06;11.30;99.90
53045;DHT22;38930;52.766;6.884;2023-06-04T05:23:33;11.40;99.90
53045;DHT22;38930;52.766;6.884;2023-06-04T05:26:00;11.60;99.90
53045;DHT22;38930;52.766;6.884;2023-06-04T05:28:26;11.90;99.90
53045;DHT22;38930;52.766;6.884;2023-06-04T05:30:52;12.50;99.90
53045;DHT22;38930;52.766;6.884;2023-06-04T05:33:24;12.50;99.90
53045;DHT22;38930;52.766;6.884;2023-06-04T05:35:50;12.70;99.90
53045;DHT22;38930;52.766;6.884;2023-06-04T05:38:18;12.90;99.90
53045;DHT22;38930;52.766;6.884;2023-06-04T05:40:54;13.20;99.90
53045;DHT22;38930;52.766;6.884;2023-06-04T05:43:20;13.40;99.90
53045;DHT22;38930;52.766;6.884;2023-06-04T05:45:46;13.60;99.90
53045;DHT22;38930;52.766;6.884;2023-06-04T05:48:12;13.80;99.90
53045;DHT22;38930;52.766;6.884;2023-06-04T05:50:38;14.10;99.90
53045;DHT22;38930;52.766;6.884;2023-06-04T05:53:04;14.20;99.90
53045;DHT22;38930;52.766;6.884;2023-06-04T05:55:29;14.30;99.90
53045;DHT22;38930;52.766;6.884;2023-06-04T05:57:55;14.60;99.90
53045;DHT22;38930;52.766;6.884;2023-06-04T06:00:21;14.80;99.90
53045;DHT22;38930;52.766;6.884;2023-06-04T06:02:49;14.90;99.90
53045;DHT22;38930;52.766;6.884;2023-06-04T06:05:15;15.10;99.90
53045;DHT22;38930;52.766;6.884;2023-06-04T06:07:41;15.20;99.90
53045;DHT22;38930;52.766;6.884;2023-06-04T06:10:07;15.30;99.90
53045;DHT22;38930;52.766;6.884;2023-06-04T06:12:33;15.40;99.90
53045;DHT22;38930;52.766;6.884;2023-06-04T06:14:59;15.40;99.90
53045;DHT22;38930;52.766;6.884;2023-06-04T06:17:25;15.30;99.90
53045;DHT22;38930;52.766;6.884;2023-06-04T06:19:51;15.50;99.90
53045;DHT22;38930;52.766;6.884;2023-06-04T06:22:17;15.50;99.90
53045;DHT22;38930;52.766;6.884;2023-06-04T06:24:43;15.70;99.90
53045;DHT22;38930;52.766;6.884;2023-06-04T06:27:10;15.70;99.90
53045;DHT22;38930;52.766;6.884;2023-06-04T06:29:36;15.70;99.90
53045;DHT22;38930;52.766;6.884;2023-06-04T06:32:02;15.60;99.90
53045;DHT22;38930;52.766;6.884;2023-06-04T06:34:28;15.70;99.90
53045;DHT22;38930;52.766;6.884;2023-06-04T06:36:54;15.70;99.90
53045;DHT22;38930;52.766;6.884;2023-06-04T06:39:19;15.80;99.90
53045;DHT22;38930;52.766;6.884;2023-06-04T06:41:45;15.90;99.90
53045;DHT22;38930;52.766;6.884;2023-06-04T06:44:11;15.90;99.90
53045;DHT22;38930;52.766;6.884;2023-06-04T06:46:37;16.10;99.90
53045;DHT22;38930;52.766;6.884;2023-06-04T06:49:02;16.20;99.90
53045;DHT22;38930;52.766;6.884;2023-06-04T06:51:28;16.40;99.90
53045;DHT22;38930;52.766;6.884;2023-06-04T06:53:53;16.60;99.90
53045;DHT22;38930;52.766;6.884;2023-06-04T06:56:19;16.50;99.90
53045;DHT22;38930;52.766;6.884;2023-06-04T06:58:45;16.60;99.90
53045;DHT22;38930;52.766;6.884;2023-06-04T07:01:11;16.70;99.90
53045;DHT22;38930;52.766;6.884;2023-06-04T07:03:37;16.80;99.90
53045;DHT22;38930;52.766;6.884;2023-06-04T07:06:04;16.90;99.90
53045;DHT22;38930;52.766;6.884;2023-06-04T07:08:29;16.90;99.90
53045;DHT22;38930;52.766;6.884;2023-06-04T07:10:55;17.00;99.90
53045;DHT22;38930;52.766;6.884;2023-06-04T07:13:21;17.10;99.90
53045;DHT22;38930;52.766;6.884;2023-06-04T07:15:46;17.30;99.90
53045;DHT22;38930;52.766;6.884;2023-06-04T07:18:12;17.40;99.90
53045;DHT22;38930;52.766;6.884;2023-06-04T07:20:38;17.50;99.90
53045;DHT22;38930;52.766;6.884;2023-06-04T07:23:03;17.60;99.90
53045;DHT22;38930;52.766;6.884;2023-06-04T07:25:29;17.60;99.90
53045;DHT22;38930;52.766;6.884;2023-06-04T07:27:55;17.60;99.90
53045;DHT22;38930;52.766;6.884;2023-06-04T07:30:24;17.70;99.90
53045;DHT22;38930;52.766;6.884;2023-06-04T07:32:50;17.80;99.90
53045;DHT22;38930;52.766;6.884;2023-06-04T07:35:16;17.80;99.90
53045;DHT22;38930;52.766;6.884;2023-06-04T07:37:42;18.00;99.90
53045;DHT22;38930;52.766;6.884;2023-06-04T07:40:11;18.00;99.90
53045;DHT22;38930;52.766;6.884;2023-06-04T07:42:37;18.00;99.90
53045;DHT22;38930;52.766;6.884;2023-06-04T07:45:03;17.90;99.90
53045;DHT22;38930;52.766;6.884;2023-06-04T07:47:29;18.00;99.90
53045;DHT22;38930;52.766;6.884;2023-06-04T07:49:55;18.20;99.90
53045;DHT22;38930;52.766;6.884;2023-06-04T07:52:20;18.20;99.90
53045;DHT22;38930;52.766;6.884;2023-06-04T07:54:46;18.40;99.90
53045;DHT22;38930;52.766;6.884;2023-06-04T07:57:12;18.40;99.90
53045;DHT22;38930;52.766;6.884;2023-06-04T07:59:37;18.40;99.90
53045;DHT22;38930;52.766;6.884;2023-06-04T08:02:03;18.50;99.90
53045;DHT22;38930;52.766;6.884;2023-06-04T08:04:29;18.70;99.90
53045;DHT22;38930;52.766;6.884;2023-06-04T08:06:55;18.80;99.90
53045;DHT22;38930;52.766;6.884;2023-06-04T08:09:21;19.00;99.90
53045;DHT22;38930;52.766;6.884;2023-06-04T08:11:47;19.10;99.90
53045;DHT22;38930;52.766;6.884;2023-06-04T08:14:12;19.00;99.90
53045;DHT22;38930;52.766;6.884;2023-06-04T08:16:39;19.20;99.90
53045;DHT22;38930;52.766;6.884;2023-06-04T08:19:06;19.10;99.90
53045;DHT22;38930;52.766;6.884;2023-06-04T08:21:33;19.10;99.90
53045;DHT22;38930;52.766;6.884;2023-06-04T08:23:59;19.10;99.90
53045;DHT22;38930;52.766;6.884;2023-06-04T08:26:25;19.30;99.90
53045;DHT22;38930;52.766;6.884;2023-06-04T08:28:52;19.50;99.90
53045;DHT22;38930;52.766;6.884;2023-06-04T08:31:18;19.50;99.90
53045;DHT22;38930;52.766;6.884;2023-06-04T08:33:45;19.50;99.90
53045;DHT22;38930;52.766;6.884;2023-06-04T08:36:11;19.60;99.90
53045;DHT22;38930;52.766;6.884;2023-06-04T08:38:37;19.60;99.90
53045;DHT22;38930;52.766;6.884;2023-06-04T08:41:12;19.70;99.90
53045;DHT22;38930;52.766;6.884;2023-06-04T08:43:39;19.80;99.90
53045;DHT22;38930;52.766;6.884;2023-06-04T08:46:05;20.00;99.90
53045;DHT22;38930;52.766;6.884;2023-06-04T08:48:35;20.10;99.90
53045;DHT22;38930;52.766;6.884;2023-06-04T08:51:02;20.20;99.90
53045;DHT22;38930;52.766;6.884;2023-06-04T08:53:31;20.10;99.90
53045;DHT22;38930;52.766;6.884;2023-06-04T08:55:57;20.10;99.90
53045;DHT22;38930;52.766;6.884;2023-06-04T08:58:26;20.20;99.90
53045;DHT22;38930;52.766;6.884;2023-06-04T09:00:53;20.30;99.90
53045;DHT22;38930;52.766;6.884;2023-06-04T09:03:20;20.50;99.90
53045;DHT22;38930;52.766;6.884;2023-06-04T09:05:47;20.70;99.90
53045;DHT22;38930;52.766;6.884;2023-06-04T09:08:17;20.80;99.90
53045;DHT22;38930;52.766;6.884;2023-06-04T09:10:44;20.80;99.00
53045;DHT22;38930;52.766;6.884;2023-06-04T09:13:14;20.80;99.50
53045;DHT22;38930;52.766;6.884;2023-06-04T09:15:41;21.00;99.90
53045;DHT22;38930;52.766;6.884;2023-06-04T09:18:07;20.80;99.90
53045;DHT22;38930;52.766;6.884;2023-06-04T09:20:32;20.70;99.90
53045;DHT22;38930;52.766;6.884;2023-06-04T09:22:58;20.80;99.70
53045;DHT22;38930;52.766;6.884;2023-06-04T09:25:27;20.80;99.90
53045;DHT22;38930;52.766;6.884;2023-06-04T09:28:04;20.90;99.40
53045;DHT22;38930;52.766;6.884;2023-06-04T09:30:30;21.00;99.30
53045;DHT22;38930;52.766;6.884;2023-06-04T09:33:06;20.90;98.10
53045;DHT22;38930;52.766;6.884;2023-06-04T09:35:32;21.00;99.70
53045;DHT22;38930;52.766;6.884;2023-06-04T09:37:58;21.20;99.50
53045;DHT22;38930;52.766;6.884;2023-06-04T09:40:24;21.30;99.00
53045;DHT22;38930;52.766;6.884;2023-06-04T09:42:51;21.30;98.40
53045;DHT22;38930;52.766;6.884;2023-06-04T09:45:30;21.30;98.30
53045;DHT22;38930;52.766;6.884;2023-06-04T09:47:56;21.50;98.50
53045;DHT22;38930;52.766;6.884;2023-06-04T09:50:27;21.60;98.20
53045;DHT22;38930;52.766;6.884;2023-06-04T09:52:53;21.60;97.50
53045;DHT22;38930;52.766;6.884;2023-06-04T09:55:19;21.70;97.40
53045;DHT22;38930;52.766;6.884;2023-06-04T09:57:52;21.60;96.60
53045;DHT22;38930;52.766;6.884;2023-06-04T10:00:20;21.70;96.50
53045;DHT22;38930;52.766;6.884;2023-06-04T10:02:53;21.90;96.40
53045;DHT22;38930;52.766;6.884;2023-06-04T10:05:21;21.90;96.00
53045;DHT22;38930;52.766;6.884;2023-06-04T10:07:50;21.90;96.00
53045;DHT22;38930;52.766;6.884;2023-06-04T10:10:19;21.90;95.50
53045;DHT22;38930;52.766;6.884;2023-06-04T10:12:50;22.00;96.40
53045;DHT22;38930;52.766;6.884;2023-06-04T10:15:17;22.10;96.30
53045;DHT22;38930;52.766;6.884;2023-06-04T10:17:43;22.10;96.10
53045;DHT22;38930;52.766;6.884;2023-06-04T10:20:09;22.10;95.70
53045;DHT22;38930;52.766;6.884;2023-06-04T10:22:36;22.00;96.00
53045;DHT22;38930;52.766;6.884;2023-06-04T10:25:02;22.10;96.50
53045;DHT22;38930;52.766;6.884;2023-06-04T10:27:31;22.10;95.90
53045;DHT22;38930;52.766;6.884;2023-06-04T10:29:57;22.20;96.40
53045;DHT22;38930;52.766;6.884;2023-06-04T10:32:29;22.30;96.10
53045;DHT22;38930;52.766;6.884;2023-06-04T10:34:55;22.40;95.80
53045;DHT22;38930;52.766;6.884;2023-06-04T10:37:24;22.40;95.40
53045;DHT22;38930;52.766;6.884;2023-06-04T10:39:54;22.50;94.70
53045;DHT22;38930;52.766;6.884;2023-06-04T10:42:21;22.40;94.50
53045;DHT22;38930;52.766;6.884;2023-06-04T10:44:51;22.30;95.10
53045;DHT22;38930;52.766;6.884;2023-06-04T10:47:24;22.30;95.70
53045;DHT22;38930;52.766;6.884;2023-06-04T10:49:50;22.30;94.90
53045;DHT22;38930;52.766;6.884;2023-06-04T10:52:17;22.40;94.70
53045;DHT22;38930;52.766;6.884;2023-06-04T10:54:44;22.40;94.90
53045;DHT22;38930;52.766;6.884;2023-06-04T10:57:14;22.40;95.40
53045;DHT22;38930;52.766;6.884;2023-06-04T10:59:41;22.50;95.10
53045;DHT22;38930;52.766;6.884;2023-06-04T11:02:08;22.50;94.90
53045;DHT22;38930;52.766;6.884;2023-06-04T11:04:35;22.60;94.90
53045;DHT22;38930;52.766;6.884;2023-06-04T11:07:03;22.70;95.20
53045;DHT22;38930;52.766;6.884;2023-06-04T11:09:34;22.90;93.40
53045;DHT22;38930;52.766;6.884;2023-06-04T11:12:04;23.00;93.90
53045;DHT22;38930;52.766;6.884;2023-06-04T11:14:30;23.20;94.70
53045;DHT22;38930;52.766;6.884;2023-06-04T11:16:56;23.10;93.60
53045;DHT22;38930;52.766;6.884;2023-06-04T11:19:22;23.30;93.20
53045;DHT22;38930;52.766;6.884;2023-06-04T11:21:48;23.30;93.50
53045;DHT22;38930;52.766;6.884;2023-06-04T11:24:14;23.20;93.70
53045;DHT22;38930;52.766;6.884;2023-06-04T11:26:41;23.00;93.20
53045;DHT22;38930;52.766;6.884;2023-06-04T11:29:09;22.90;93.90
53045;DHT22;38930;52.766;6.884;2023-06-04T11:31:43;22.80;92.40
53045;DHT22;38930;52.766;6.884;2023-06-04T11:34:09;22.90;93.40
53045;DHT22;38930;52.766;6.884;2023-06-04T11:36:37;22.90;93.50
53045;DHT22;38930;52.766;6.884;2023-06-04T11:39:04;23.00;92.80
53045;DHT22;38930;52.766;6.884;2023-06-04T11:41:34;23.00;93.20
53045;DHT22;38930;52.766;6.884;2023-06-04T11:44:05;23.10;93.10
53045;DHT22;38930;52.766;6.884;2023-06-04T11:46:43;23.10;93.00
53045;DHT22;38930;52.766;6.884;2023-06-04T11:49:13;23.20;92.70
53045;DHT22;38930;52.766;6.884;2023-06-04T11:51:48;23.10;93.60
53045;DHT22;38930;52.766;6.884;2023-06-04T11:54:16;23.20;93.70
53045;DHT22;38930;52.766;6.884;2023-06-04T11:56:42;23.30;93.70
53045;DHT22;38930;52.766;6.884;2023-06-04T11:59:15;23.40;92.50
53045;DHT22;38930;52.766;6.884;2023-06-04T12:01:45;23.30;92.00
53045;DHT22;38930;52.766;6.884;2023-06-04T12:04:15;23.10;92.70
53045;DHT22;38930;52.766;6.884;2023-06-04T12:06:55;23.40;91.70
53045;DHT22;38930;52.766;6.884;2023-06-04T12:09:30;23.40;91.70
53045;DHT22;38930;52.766;6.884;2023-06-04T12:12:07;23.60;92.70
53045;DHT22;38930;52.766;6.884;2023-06-04T12:14:34;23.60;92.60
53045;DHT22;38930;52.766;6.884;2023-06-04T12:17:06;23.70;92.20
53045;DHT22;38930;52.766;6.884;2023-06-04T12:19:32;23.70;91.70
53045;DHT22;38930;52.766;6.884;2023-06-04T12:22:02;23.70;92.20
53045;DHT22;38930;52.766;6.884;2023-06-04T12:24:30;23.70;91.80
53045;DHT22;38930;52.766;6.884;2023-06-04T12:27:03;23.70;91.70
53045;DHT22;38930;52.766;6.884;2023-06-04T12:29:30;23.70;91.30
53045;DHT22;38930;52.766;6.884;2023-06-04T12:32:09;23.70;91.10
53045;DHT22;38930;52.766;6.884;2023-06-04T12:34:37;23.80;91.40
53045;DHT22;38930;52.766;6.884;2023-06-04T12:37:03;23.90;91.50
53045;DHT22;38930;52.766;6.884;2023-06-04T12:39:29;23.70;90.70
53045;DHT22;38930;52.766;6.884;2023-06-04T12:41:55;23.80;90.00
53045;DHT22;38930;52.766;6.884;2023-06-04T12:44:21;23.90;90.70
53045;DHT22;38930;52.766;6.884;2023-06-04T12:46:47;24.00;90.90
53045;DHT22;38930;52.766;6.884;2023-06-04T12:49:12;24.10;90.40
53045;DHT22;38930;52.766;6.884;2023-06-04T12:51:38;24.10;89.30
53045;DHT22;38930;52.766;6.884;2023-06-04T12:54:04;24.10;89.90
53045;DHT22;38930;52.766;6.884;2023-06-04T12:56:30;24.20;89.90
53045;DHT22;38930;52.766;6.884;2023-06-04T12:58:56;24.10;87.80
53045;DHT22;38930;52.766;6.884;2023-06-04T13:01:22;24.30;89.60
53045;DHT22;38930;52.766;6.884;2023-06-04T13:03:47;24.20;88.60
53045;DHT22;38930;52.766;6.884;2023-06-04T13:06:13;24.30;89.90
53045;DHT22;38930;52.766;6.884;2023-06-04T13:08:39;23.80;87.20
53045;DHT22;38930;52.766;6.884;2023-06-04T13:11:05;23.80;88.90
53045;DHT22;38930;52.766;6.884;2023-06-04T13:13:31;23.80;89.70
53045;DHT22;38930;52.766;6.884;2023-06-04T13:15:57;23.60;88.50
53045;DHT22;38930;52.766;6.884;2023-06-04T13:18:23;23.70;90.10
53045;DHT22;38930;52.766;6.884;2023-06-04T13:20:48;23.80;90.00
53045;DHT22;38930;52.766;6.884;2023-06-04T13:23:14;23.90;90.30
53045;DHT22;38930;52.766;6.884;2023-06-04T13:25:40;24.00;88.50
53045;DHT22;38930;52.766;6.884;2023-06-04T13:28:06;23.90;88.70
53045;DHT22;38930;52.766;6.884;2023-06-04T13:30:35;23.90;89.20
53045;DHT22;38930;52.766;6.884;2023-06-04T13:33:01;23.80;88.70
53045;DHT22;38930;52.766;6.884;2023-06-04T13:35:26;23.80;87.60
53045;DHT22;38930;52.766;6.884;2023-06-04T13:37:52;23.90;89.00
53045;DHT22;38930;52.766;6.884;2023-06-04T13:40:18;23.90;89.70
53045;DHT22;38930;52.766;6.884;2023-06-04T13:42:43;23.90;89.00
53045;DHT22;38930;52.766;6.884;2023-06-04T13:45:09;23.90;88.60
53045;DHT22;38930;52.766;6.884;2023-06-04T13:47:35;23.90;89.80
53045;DHT22;38930;52.766;6.884;2023-06-04T13:50:01;24.00;88.30
53045;DHT22;38930;52.766;6.884;2023-06-04T13:52:27;23.90;88.30
53045;DHT22;38930;52.766;6.884;2023-06-04T13:54:55;24.00;90.00
53045;DHT22;38930;52.766;6.884;2023-06-04T13:57:21;24.10;89.20
53045;DHT22;38930;52.766;6.884;2023-06-04T13:59:49;23.90;88.80
53045;DHT22;38930;52.766;6.884;2023-06-04T14:02:14;24.10;90.50
53045;DHT22;38930;52.766;6.884;2023-06-04T14:04:40;24.10;88.50
53045;DHT22;38930;52.766;6.884;2023-06-04T14:07:06;24.00;89.30
53045;DHT22;38930;52.766;6.884;2023-06-04T14:09:31;24.10;90.20
53045;DHT22;38930;52.766;6.884;2023-06-04T14:11:58;24.20;88.60
53045;DHT22;38930;52.766;6.884;2023-06-04T14:14:23;24.20;89.30
53045;DHT22;38930;52.766;6.884;2023-06-04T14:16:49;24.20;88.80
53045;DHT22;38930;52.766;6.884;2023-06-04T14:19:15;24.20;88.50
53045;DHT22;38930;52.766;6.884;2023-06-04T14:21:42;24.20;89.70
53045;DHT22;38930;52.766;6.884;2023-06-04T14:24:09;24.10;88.90
53045;DHT22;38930;52.766;6.884;2023-06-04T14:26:35;24.10;89.60
53045;DHT22;38930;52.766;6.884;2023-06-04T14:29:01;24.20;89.10
53045;DHT22;38930;52.766;6.884;2023-06-04T14:31:27;24.10;89.10
53045;DHT22;38930;52.766;6.884;2023-06-04T14:33:55;24.10;90.10
53045;DHT22;38930;52.766;6.884;2023-06-04T14:36:20;24.00;88.30
53045;DHT22;38930;52.766;6.884;2023-06-04T14:38:46;23.90;88.70
53045;DHT22;38930;52.766;6.884;2023-06-04T14:41:14;24.00;89.10
53045;DHT22;38930;52.766;6.884;2023-06-04T14:43:39;24.10;89.80
53045;DHT22;38930;52.766;6.884;2023-06-04T14:46:05;24.10;90.10
53045;DHT22;38930;52.766;6.884;2023-06-04T14:48:31;24.10;88.70
53045;DHT22;38930;52.766;6.884;2023-06-04T14:50:56;24.20;90.00
53045;DHT22;38930;52.766;6.884;2023-06-04T14:53:22;24.20;90.00
53045;DHT22;38930;52.766;6.884;2023-06-04T14:55:48;24.30;88.80
53045;DHT22;38930;52.766;6.884;2023-06-04T14:58:14;24.20;89.60
53045;DHT22;38930;52.766;6.884;2023-06-04T15:00:41;24.00;90.30
53045;DHT22;38930;52.766;6.884;2023-06-04T15:03:07;24.00;90.90
53045;DHT22;38930;52.766;6.884;2023-06-04T15:05:32;23.80;91.00
53045;DHT22;38930;52.766;6.884;2023-06-04T15:07:58;23.70;91.90
53045;DHT22;38930;52.766;6.884;2023-06-04T15:10:25;23.40;92.50
53045;DHT22;38930;52.766;6.884;2023-06-04T15:12:52;23.40;92.90
53045;DHT22;38930;52.766;6.884;2023-06-04T15:15:18;23.40;93.50
53045;DHT22;38930;52.766;6.884;2023-06-04T15:17:43;23.30;93.20
53045;DHT22;38930;52.766;6.884;2023-06-04T15:20:09;23.20;93.60
53045;DHT22;38930;52.766;6.884;2023-06-04T15:22:35;23.10;94.40
53045;DHT22;38930;52.766;6.884;2023-06-04T15:25:01;23.20;94.90
53045;DHT22;38930;52.766;6.884;2023-06-04T15:27:26;22.90;94.00
53045;DHT22;38930;52.766;6.884;2023-06-04T15:29:52;22.80;94.70